createdAt,value
2018-08-17T00:00:08.150Z,77.80
2018-08-17T00:02:36.789Z,77.26
2018-08-17T00:05:05.366Z,77.39
2018-08-17T00:07:33.970Z,77.92
2018-08-17T00:10:02.586Z,77.20
2018-08-17T00:12:31.235Z,77.48
2018-08-17T00:14:59.855Z,77.36
2018-08-17T00:17:28.354Z,77.42
2018-08-17T00:19:56.970Z,76.43
2018-08-17T00:22:25.808Z,75.71
2018-08-17T00:24:54.419Z,74.98
2018-08-17T00:27:23.078Z,74.80
2018-08-17T00:29:51.762Z,73.64
2018-08-17T00:32:20.652Z,74.30
2018-08-17T00:34:49.648Z,74.18
2018-08-17T00:37:18.535Z,74.23
2018-08-17T00:39:47.220Z,73.92
2018-08-17T00:42:15.805Z,74.03
2018-08-17T00:44:44.329Z,74.52
2018-08-17T00:47:12.914Z,74.19
2018-08-17T00:49:41.546Z,74.55
2018-08-17T00:52:10.037Z,74.75
2018-08-17T00:54:38.820Z,74.83
2018-08-17T00:57:07.455Z,74.70
2018-08-17T00:59:36.087Z,74.57
2018-08-17T01:02:04.774Z,75.12
2018-08-17T01:04:33.303Z,75.09
2018-08-17T01:07:01.938Z,75.78
2018-08-17T01:09:30.467Z,75.72
2018-08-17T01:11:59.106Z,76.33
2018-08-17T01:14:27.635Z,76.51
2018-08-17T01:16:56.271Z,76.25
2018-08-17T01:19:24.805Z,76.57
2018-08-17T01:21:53.364Z,77.01
2018-08-17T01:24:22.223Z,76.83
2018-08-17T01:26:50.805Z,76.71
2018-08-17T01:29:19.389Z,76.69
2018-08-17T01:31:48.059Z,76.76
2018-08-17T01:34:16.611Z,76.76
2018-08-17T01:36:45.195Z,76.83
2018-08-17T01:39:13.824Z,76.80
2018-08-17T01:41:42.409Z,76.68
2018-08-17T01:44:10.975Z,76.56
2018-08-17T01:46:40.198Z,76.89
2018-08-17T01:49:09.390Z,76.52
2018-08-17T01:51:37.927Z,75.90
2018-08-17T01:54:07.211Z,75.93
2018-08-17T01:56:35.720Z,76.14
2018-08-17T01:59:04.898Z,76.04
2018-08-17T02:01:33.526Z,76.54
2018-08-17T02:04:02.827Z,76.66
2018-08-17T02:06:32.228Z,76.78
2018-08-17T02:09:00.758Z,76.63
2018-08-17T02:11:29.344Z,76.74
2018-08-17T02:13:57.976Z,76.44
2018-08-17T02:16:26.527Z,76.53
2018-08-17T02:18:55.091Z,76.35
2018-08-17T02:21:23.982Z,76.61
2018-08-17T02:23:52.567Z,76.84
2018-08-17T02:26:21.200Z,76.82
2018-08-17T02:28:49.787Z,77.31
2018-08-17T02:31:18.584Z,78.26
2018-08-17T02:33:47.234Z,77.87
2018-08-17T02:36:15.839Z,78.00
2018-08-17T02:38:44.421Z,78.40
2018-08-17T02:41:13.007Z,79.61
2018-08-17T02:43:41.673Z,79.40
2018-08-17T02:46:10.235Z,79.43
2018-08-17T02:48:38.856Z,80.84
2018-08-17T02:51:07.395Z,80.21
2018-08-17T02:53:35.919Z,80.55
2018-08-17T02:56:04.553Z,81.29
2018-08-17T02:58:33.102Z,80.59
2018-08-17T03:01:01.666Z,80.45
2018-08-17T03:03:31.068Z,81.07
2018-08-17T03:05:59.595Z,81.75
2018-08-17T03:08:28.234Z,82.84
2018-08-17T03:10:56.817Z,82.19
2018-08-17T03:13:26.083Z,82.38
2018-08-17T03:15:54.802Z,82.52
2018-08-17T03:18:23.301Z,81.79
2018-08-17T03:20:51.871Z,82.21
2018-08-17T03:23:20.552Z,81.74
2018-08-17T03:25:49.648Z,82.09
2018-08-17T03:28:18.278Z,82.16
2018-08-17T03:30:46.879Z,81.76
2018-08-17T03:33:15.496Z,81.53
2018-08-17T03:35:44.081Z,81.32
2018-08-17T03:38:12.757Z,81.23
2018-08-17T03:40:41.275Z,81.11
2018-08-17T03:43:09.930Z,80.72
2018-08-17T03:45:38.456Z,80.58
2018-08-17T03:48:07.565Z,80.75
2018-08-17T03:50:36.352Z,79.89
2018-08-17T03:53:04.979Z,80.39
2018-08-17T03:55:33.619Z,79.78
2018-08-17T03:58:02.253Z,79.76
2018-08-17T04:00:30.835Z,79.38
2018-08-17T04:02:59.619Z,79.31
2018-08-17T04:05:28.917Z,79.37
2018-08-17T04:07:58.115Z,78.93
2018-08-17T04:10:26.731Z,79.25
2018-08-17T04:12:55.239Z,79.23
2018-08-17T04:15:23.846Z,78.81
2018-08-17T04:17:52.457Z,78.99
2018-08-17T04:20:21.132Z,78.88
2018-08-17T04:22:49.716Z,79.20
2018-08-17T04:25:18.218Z,79.41
2018-08-17T04:27:46.758Z,79.20
2018-08-17T04:30:15.319Z,79.08
2018-08-17T04:32:43.896Z,78.69
2018-08-17T04:35:12.527Z,78.70
2018-08-17T04:37:41.417Z,78.80
2018-08-17T04:40:10.004Z,78.79
2018-08-17T04:42:38.675Z,78.90
2018-08-17T04:45:08.176Z,79.21
2018-08-17T04:47:36.877Z,79.03
2018-08-17T04:50:06.327Z,78.60
2018-08-17T04:52:34.862Z,78.52
2018-08-17T04:55:03.544Z,78.18
2018-08-17T04:57:32.075Z,78.50
2018-08-17T05:00:00.715Z,78.19
2018-08-17T05:02:29.364Z,78.06
2018-08-17T05:04:57.937Z,77.84
2018-08-17T05:07:26.458Z,76.85
2018-08-17T05:09:54.983Z,76.53
2018-08-17T05:12:23.625Z,76.46
2018-08-17T05:14:52.122Z,76.31
2018-08-17T05:17:20.755Z,76.42
2018-08-17T05:19:49.353Z,76.19
2018-08-17T05:22:17.875Z,75.99
2018-08-17T05:24:46.454Z,76.49
2018-08-17T05:27:14.963Z,76.45
2018-08-17T05:29:43.565Z,76.86
2018-08-17T05:32:12.289Z,76.79
2018-08-17T05:34:40.812Z,77.19
2018-08-17T05:37:09.321Z,77.36
2018-08-17T05:39:37.934Z,76.88
2018-08-17T05:42:06.588Z,76.14
2018-08-17T05:44:36.432Z,75.61
2018-08-17T05:47:05.072Z,76.21
2018-08-17T05:49:34.315Z,75.78
2018-08-17T05:52:02.943Z,75.49
2018-08-17T05:54:31.788Z,74.47
2018-08-17T05:57:00.349Z,74.63
2018-08-17T05:59:28.917Z,74.38
2018-08-17T06:01:57.643Z,74.39
2018-08-17T06:04:26.255Z,73.75
2018-08-17T06:06:55.352Z,74.12
2018-08-17T06:09:24.617Z,73.93
2018-08-17T06:11:53.151Z,73.43
2018-08-17T06:14:21.784Z,73.53
2018-08-17T06:16:50.365Z,73.90
2018-08-17T06:19:19.594Z,73.36
2018-08-17T06:21:48.129Z,72.90
2018-08-17T06:24:16.793Z,72.16
2018-08-17T06:26:45.439Z,71.99
2018-08-17T06:29:14.762Z,71.09
2018-08-17T06:31:44.409Z,70.88
2018-08-17T06:34:12.974Z,70.91
2018-08-17T06:36:41.526Z,71.56
2018-08-17T06:39:11.542Z,71.70
2018-08-17T06:41:40.399Z,72.73
2018-08-17T06:44:09.128Z,73.58
2018-08-17T06:46:37.679Z,73.51
2018-08-17T06:49:06.923Z,73.19
2018-08-17T06:51:35.747Z,72.96
2018-08-17T06:54:04.343Z,72.61
2018-08-17T06:56:33.507Z,72.34
2018-08-17T06:59:02.034Z,71.84
2018-08-17T07:01:32.103Z,72.18
2018-08-17T07:04:00.670Z,71.45
2018-08-17T07:06:29.397Z,71.54
2018-08-17T07:08:58.014Z,71.52
2018-08-17T07:11:26.664Z,71.74
2018-08-17T07:13:55.338Z,70.45
2018-08-17T07:16:24.819Z,70.25
2018-08-17T07:18:53.405Z,70.86
2018-08-17T07:21:22.022Z,71.26
2018-08-17T07:23:51.386Z,69.82
2018-08-17T07:26:19.963Z,69.55
2018-08-17T07:28:48.586Z,69.26
2018-08-17T07:31:17.169Z,68.07
2018-08-17T07:33:45.855Z,67.57
2018-08-17T07:36:14.542Z,66.01
2018-08-17T07:38:43.043Z,65.79
2018-08-17T07:41:11.709Z,65.25
2018-08-17T07:43:40.380Z,66.00
2018-08-17T07:46:10.163Z,64.70
2018-08-17T07:48:39.442Z,65.60
2018-08-17T07:51:08.605Z,66.55
2018-08-17T07:53:38.716Z,67.14
2018-08-17T07:56:07.355Z,67.50
2018-08-17T07:58:35.984Z,68.18
2018-08-17T08:01:04.619Z,67.48
2018-08-17T08:03:33.204Z,68.32
2018-08-17T08:06:02.419Z,67.46
2018-08-17T08:08:30.950Z,67.02
2018-08-17T08:11:00.596Z,66.49
2018-08-17T08:13:29.088Z,66.70
2018-08-17T08:15:57.706Z,65.46
2018-08-17T08:18:26.740Z,65.37
2018-08-17T08:20:56.200Z,65.58
2018-08-17T08:23:28.278Z,65.97
2018-08-17T08:25:59.543Z,65.04
2018-08-17T08:28:29.530Z,65.37
2018-08-17T08:30:59.791Z,65.46
2018-08-17T08:33:29.418Z,65.64
2018-08-17T08:35:58.757Z,65.66
2018-08-17T08:38:29.025Z,65.35
2018-08-17T08:40:59.508Z,65.11
2018-08-17T08:43:30.318Z,64.48
2018-08-17T08:46:00.095Z,65.85
2018-08-17T08:48:29.866Z,64.89
2018-08-17T08:51:00.599Z,65.58
2018-08-17T08:53:29.895Z,64.72
2018-08-17T08:55:59.594Z,64.55
2018-08-17T08:58:28.612Z,63.88
2018-08-17T09:00:57.134Z,62.89
2018-08-17T09:03:26.493Z,63.79
2018-08-17T09:05:55.102Z,64.44
2018-08-17T09:08:23.751Z,64.30
2018-08-17T09:10:52.271Z,64.02
2018-08-17T09:13:20.878Z,62.13
2018-08-17T09:15:49.446Z,61.89
2018-08-17T09:18:18.902Z,62.34
2018-08-17T09:20:47.590Z,62.75
2018-08-17T09:23:16.091Z,62.25
2018-08-17T09:25:44.751Z,63.08
2018-08-17T09:28:13.443Z,63.44
2018-08-17T09:30:42.019Z,63.06
2018-08-17T09:33:10.663Z,63.16
2018-08-17T09:35:39.370Z,62.43
2018-08-17T09:38:08.011Z,63.80
2018-08-17T09:40:37.185Z,61.77
2018-08-17T09:43:05.988Z,60.22
2018-08-17T09:45:34.644Z,59.81
2018-08-17T09:48:03.386Z,59.75
2018-08-17T09:50:32.013Z,59.71
2018-08-17T09:53:00.619Z,61.07
2018-08-17T09:55:29.130Z,61.63
2018-08-17T09:57:57.625Z,61.85
2018-08-17T10:00:32.198Z,61.67
2018-08-17T10:03:06.397Z,62.10
2018-08-17T10:05:38.673Z,62.75
2018-08-17T10:08:12.321Z,61.70
2018-08-17T10:10:41.020Z,62.26
2018-08-17T10:13:09.646Z,61.82
2018-08-17T10:15:38.151Z,61.19
2018-08-17T10:18:06.760Z,61.46
2018-08-17T10:20:35.407Z,62.09
2018-08-17T10:23:10.936Z,61.31
2018-08-17T10:25:40.051Z,60.89
2018-08-17T10:28:09.350Z,60.48
2018-08-17T10:30:38.013Z,60.69
2018-08-17T10:33:06.519Z,60.54
2018-08-17T10:35:36.356Z,60.54
2018-08-17T10:38:07.151Z,60.13
2018-08-17T10:40:35.649Z,60.59
2018-08-17T10:43:05.805Z,60.67
2018-08-17T10:45:34.890Z,61.68
2018-08-17T10:48:03.749Z,62.23
2018-08-17T10:50:33.443Z,61.01
2018-08-17T10:53:03.193Z,61.66
2018-08-17T10:55:41.732Z,60.98
2018-08-17T10:58:13.183Z,60.60
2018-08-17T11:00:42.000Z,60.37
2018-08-17T11:03:10.821Z,59.10
2018-08-17T11:05:39.426Z,60.08
2018-08-17T11:08:08.297Z,59.97
2018-08-17T11:10:36.945Z,58.17
2018-08-17T11:13:05.733Z,59.03
2018-08-17T11:15:34.340Z,58.45
2018-08-17T11:18:03.005Z,57.45
2018-08-17T11:20:31.676Z,58.03
2018-08-17T11:23:00.536Z,56.37
2018-08-17T11:25:29.111Z,57.32
2018-08-17T11:27:57.665Z,57.88
2018-08-17T11:30:26.263Z,58.32
2018-08-17T11:32:54.846Z,57.53
2018-08-17T11:35:23.435Z,58.85
2018-08-17T11:37:52.118Z,59.42
2018-08-17T11:40:20.679Z,58.73
2018-08-17T11:42:50.320Z,58.01
2018-08-17T11:45:27.234Z,58.12
2018-08-17T11:47:57.059Z,58.79
2018-08-17T11:50:26.637Z,58.02
2018-08-17T11:52:56.575Z,57.31
2018-08-17T11:55:26.347Z,57.96
2018-08-17T11:57:55.043Z,56.58
2018-08-17T12:00:24.064Z,57.94
2018-08-17T12:02:52.711Z,57.42
2018-08-17T12:05:21.542Z,57.41
2018-08-17T12:07:50.430Z,56.60
2018-08-17T12:10:19.016Z,57.02
2018-08-17T12:12:47.843Z,56.82
2018-08-17T12:15:17.304Z,56.30
2018-08-17T12:17:45.935Z,57.02
2018-08-17T12:20:14.674Z,57.97
2018-08-17T12:22:43.257Z,57.81
2018-08-17T12:25:12.096Z,57.02
2018-08-17T12:27:46.891Z,57.26
2018-08-17T12:30:15.394Z,57.60
2018-08-17T12:32:44.044Z,57.14
2018-08-17T12:35:12.712Z,56.75
2018-08-17T12:37:41.410Z,57.34
2018-08-17T12:40:10.075Z,57.61
2018-08-17T12:42:39.346Z,56.76
2018-08-17T12:45:13.027Z,56.20
2018-08-17T12:47:43.066Z,56.55
2018-08-17T12:50:11.703Z,56.60
2018-08-17T12:52:40.229Z,57.75
2018-08-17T12:55:09.447Z,56.50
2018-08-17T12:57:40.846Z,56.57
2018-08-17T13:00:09.473Z,56.70
2018-08-17T13:02:38.093Z,56.75
2018-08-17T13:05:06.836Z,56.56
2018-08-17T13:07:35.346Z,57.42
2018-08-17T13:10:04.267Z,57.21
2018-08-17T13:12:32.868Z,57.24
2018-08-17T13:15:01.439Z,57.40
2018-08-17T13:17:48.637Z,57.52
2018-08-17T13:20:17.936Z,56.25
2018-08-17T13:22:46.471Z,56.09
2018-08-17T13:25:15.205Z,56.85
2018-08-17T13:27:44.271Z,56.96
2018-08-17T13:30:14.570Z,57.04
2018-08-17T13:32:43.974Z,57.54
2018-08-17T13:35:13.635Z,57.66
2018-08-17T13:37:43.089Z,57.71
2018-08-17T13:40:12.234Z,58.35
2018-08-17T13:42:41.124Z,58.12
2018-08-17T13:45:10.587Z,58.17
2018-08-17T13:47:39.151Z,58.59
2018-08-17T13:50:08.104Z,57.51
2018-08-17T13:52:36.731Z,57.93
2018-08-17T13:55:05.372Z,58.58
2018-08-17T13:57:33.866Z,58.56
2018-08-17T14:00:03.252Z,58.79
2018-08-17T14:02:31.937Z,58.79
2018-08-17T14:05:00.559Z,59.99
2018-08-17T14:07:29.167Z,59.16
2018-08-17T14:09:57.818Z,58.53
2018-08-17T14:12:26.473Z,58.18
2018-08-17T14:14:54.985Z,57.48
2018-08-17T14:17:24.355Z,57.44
2018-08-17T14:19:52.983Z,58.14
2018-08-17T14:22:21.563Z,57.54
2018-08-17T14:24:50.206Z,57.15
2018-08-17T14:27:18.857Z,57.63
2018-08-17T14:29:48.093Z,57.36
2018-08-17T14:32:16.671Z,56.66
2018-08-17T14:34:45.971Z,55.75
2018-08-17T14:37:14.483Z,56.03
2018-08-17T14:39:43.102Z,56.82
2018-08-17T14:42:11.663Z,55.03
2018-08-17T14:44:40.405Z,56.50
2018-08-17T14:47:09.002Z,56.44
2018-08-17T14:49:39.462Z,57.24
2018-08-17T14:52:08.068Z,56.66
2018-08-17T14:54:36.696Z,57.08
2018-08-17T14:57:05.368Z,56.10
2018-08-17T14:59:33.978Z,56.67
2018-08-17T15:02:02.537Z,55.92
2018-08-17T15:04:31.116Z,57.08
2018-08-17T15:06:59.699Z,57.25
2018-08-17T15:09:28.328Z,56.63
2018-08-17T15:11:56.886Z,56.09
2018-08-17T15:14:25.487Z,56.09
2018-08-17T15:16:54.133Z,57.17
2018-08-17T15:19:24.911Z,56.40
2018-08-17T15:21:53.599Z,57.55
2018-08-17T15:24:22.174Z,57.77
2018-08-17T15:26:50.819Z,56.94
2018-08-17T15:29:19.505Z,57.04
2018-08-17T15:31:48.031Z,56.86
2018-08-17T15:34:16.672Z,57.61
2018-08-17T15:36:45.734Z,58.60
2018-08-17T15:39:14.439Z,57.92
2018-08-17T15:41:45.017Z,59.04
2018-08-17T15:44:18.955Z,58.63
2018-08-17T15:46:47.627Z,58.68
2018-08-17T15:49:22.003Z,59.11
2018-08-17T15:51:50.679Z,59.17
2018-08-17T15:54:20.141Z,59.14
2018-08-17T15:56:48.765Z,58.12
2018-08-17T15:59:17.862Z,57.92
2018-08-17T16:01:46.468Z,59.25
2018-08-17T16:04:15.282Z,59.13
2018-08-17T16:06:43.876Z,58.92
2018-08-17T16:09:13.607Z,59.17
2018-08-17T16:11:42.309Z,58.67
2018-08-17T16:14:10.964Z,58.90
2018-08-17T16:16:40.963Z,59.54
2018-08-17T16:19:10.479Z,59.92
2018-08-17T16:21:39.699Z,59.54
2018-08-17T16:24:08.379Z,58.99
2018-08-17T16:26:36.906Z,58.76
2018-08-17T16:29:05.998Z,59.25
2018-08-17T16:31:40.791Z,59.97
2018-08-17T16:34:10.064Z,61.26
2018-08-17T16:36:40.963Z,61.43
2018-08-17T16:39:12.453Z,61.20
2018-08-17T16:41:41.104Z,61.69
2018-08-17T16:44:09.703Z,62.20
2018-08-17T16:46:39.642Z,62.15
2018-08-17T16:49:08.407Z,62.71
2018-08-17T16:51:37.460Z,61.98
2018-08-17T16:54:06.446Z,62.86
2018-08-17T16:56:35.337Z,62.57
2018-08-17T16:59:04.162Z,62.60
2018-08-17T17:01:34.346Z,63.28
2018-08-17T17:04:03.034Z,63.95
2018-08-17T17:06:32.221Z,64.18
2018-08-17T17:09:02.858Z,64.28
2018-08-17T17:11:31.669Z,64.13
2018-08-17T17:14:00.318Z,64.46
2018-08-17T17:16:37.294Z,64.90
2018-08-17T17:19:09.602Z,65.09
2018-08-17T17:21:41.035Z,64.25
2018-08-17T17:24:09.733Z,63.96
2018-08-17T17:26:38.324Z,64.04
2018-08-17T17:29:07.394Z,65.05
2018-08-17T17:31:36.070Z,65.52
2018-08-17T17:34:04.731Z,65.07
2018-08-17T17:36:33.299Z,65.54
2018-08-17T17:39:02.523Z,65.10
2018-08-17T17:41:32.751Z,66.30
2018-08-17T17:44:01.913Z,66.25
2018-08-17T17:46:30.650Z,66.67
2018-08-17T17:48:59.191Z,66.87
2018-08-17T17:51:28.722Z,67.08
2018-08-17T17:53:58.806Z,66.96
2018-08-17T17:56:28.149Z,67.91
2018-08-17T17:59:06.261Z,67.10
2018-08-17T18:01:35.219Z,68.56
2018-08-17T18:04:05.415Z,67.92
2018-08-17T18:06:33.998Z,68.85
2018-08-17T18:09:02.845Z,68.74
2018-08-17T18:11:31.442Z,68.68
2018-08-17T18:14:00.183Z,69.70
2018-08-17T18:16:28.866Z,69.12
2018-08-17T18:18:57.449Z,70.17
2018-08-17T18:21:32.131Z,69.90
2018-08-17T18:24:06.947Z,69.88
2018-08-17T18:26:35.974Z,69.56
2018-08-17T18:29:04.584Z,69.80
2018-08-17T18:31:33.200Z,70.18
2018-08-17T18:34:01.868Z,70.42
2018-08-17T18:36:32.005Z,70.58
2018-08-17T18:39:01.057Z,71.69
2018-08-17T18:41:29.691Z,72.75
2018-08-17T18:43:59.238Z,72.71
2018-08-17T18:46:27.895Z,71.59
2018-08-17T18:48:56.517Z,71.89
2018-08-17T18:51:25.091Z,71.74
2018-08-17T18:53:53.654Z,72.40
2018-08-17T18:56:22.244Z,72.18
2018-08-17T18:58:50.889Z,72.53
2018-08-17T19:01:19.772Z,72.60
2018-08-17T19:03:48.567Z,72.76
2018-08-17T19:06:17.100Z,73.15
2018-08-17T19:08:46.094Z,73.24
2018-08-17T19:11:14.682Z,72.46
2018-08-17T19:13:43.223Z,71.74
2018-08-17T19:16:11.961Z,72.61
2018-08-17T19:18:40.475Z,72.55
2018-08-17T19:21:12.959Z,72.85
2018-08-17T19:23:41.625Z,72.90
2018-08-17T19:26:10.910Z,72.44
2018-08-17T19:28:39.820Z,71.78
2018-08-17T19:31:08.712Z,73.03
2018-08-17T19:33:37.398Z,71.69
2018-08-17T19:36:07.576Z,72.59
2018-08-17T19:38:39.859Z,72.71
2018-08-17T19:41:08.682Z,73.19
2018-08-17T19:43:37.606Z,73.29
2018-08-17T19:46:06.665Z,73.23
2018-08-17T19:48:35.483Z,73.97
2018-08-17T19:51:10.124Z,73.94
2018-08-17T19:53:38.886Z,73.50
2018-08-17T19:56:08.261Z,73.81
2018-08-17T19:58:37.623Z,73.76
2018-08-17T20:01:08.002Z,73.16
2018-08-17T20:03:36.673Z,73.98
2018-08-17T20:06:05.360Z,74.21
2018-08-17T20:08:34.254Z,74.21
2018-08-17T20:11:02.912Z,73.88
2018-08-17T20:13:31.623Z,74.51
2018-08-17T20:16:00.201Z,75.37
2018-08-17T20:18:28.888Z,75.03
2018-08-17T20:20:57.772Z,74.59
2018-08-17T20:23:26.429Z,75.35
2018-08-17T20:25:55.272Z,74.97
2018-08-17T20:28:24.143Z,74.91
2018-08-17T20:30:52.776Z,75.29
2018-08-17T20:33:28.169Z,74.75
2018-08-17T20:35:57.615Z,74.80
2018-08-17T20:38:26.974Z,75.65
2018-08-17T20:40:59.825Z,75.04
2018-08-17T20:43:28.894Z,74.70
2018-08-17T20:45:57.586Z,74.68
2018-08-17T20:48:26.217Z,74.56
2018-08-17T20:50:54.960Z,74.69
2018-08-17T20:53:24.100Z,74.44
2018-08-17T20:55:52.685Z,73.94
2018-08-17T20:58:21.233Z,73.75
2018-08-17T21:00:49.851Z,73.27
2018-08-17T21:03:18.512Z,73.14
2018-08-17T21:05:47.046Z,72.33
2018-08-17T21:08:15.808Z,71.70
2018-08-17T21:10:44.384Z,72.08
2018-08-17T21:13:13.536Z,72.06
2018-08-17T21:15:42.895Z,71.73
2018-08-17T21:18:11.564Z,71.94
2018-08-17T21:20:40.864Z,71.61
2018-08-17T21:23:10.041Z,71.45
2018-08-17T21:25:38.852Z,71.27
2018-08-17T21:28:07.435Z,71.74
2018-08-17T21:30:36.039Z,71.39
2018-08-17T21:33:04.705Z,71.48
2018-08-17T21:35:33.339Z,71.91
2018-08-17T21:38:01.923Z,71.49
2018-08-17T21:40:31.273Z,71.76
2018-08-17T21:43:01.292Z,72.15
2018-08-17T21:45:30.182Z,72.45
2018-08-17T21:47:58.892Z,72.58
2018-08-17T21:50:27.553Z,73.27
2018-08-17T21:52:56.335Z,73.21
2018-08-17T21:55:24.924Z,72.98
2018-08-17T21:57:53.595Z,73.25
2018-08-17T22:00:28.906Z,73.71
2018-08-17T22:02:57.835Z,74.32
2018-08-17T22:05:31.659Z,74.17
2018-08-17T22:08:00.736Z,74.68
2018-08-17T22:10:30.035Z,74.13
2018-08-17T22:12:59.438Z,74.01
2018-08-17T22:15:29.623Z,73.43
2018-08-17T22:17:58.198Z,73.08
2018-08-17T22:20:26.872Z,72.95
2018-08-17T22:22:55.541Z,73.04
2018-08-17T22:25:24.297Z,73.03
2018-08-17T22:27:52.987Z,72.92
2018-08-17T22:30:24.551Z,72.91
2018-08-17T22:32:53.222Z,73.37
2018-08-17T22:35:21.960Z,73.79
2018-08-17T22:37:50.543Z,74.15
2018-08-17T22:40:19.098Z,74.39
2018-08-17T22:42:48.762Z,74.55
2018-08-17T22:45:17.718Z,75.35
2018-08-17T22:47:46.644Z,75.08
2018-08-17T22:50:15.250Z,76.08
2018-08-17T22:52:43.895Z,75.43
2018-08-17T22:55:12.514Z,74.94
2018-08-17T22:57:41.304Z,75.57
2018-08-17T23:00:18.187Z,75.63
2018-08-17T23:02:48.510Z,76.34
2018-08-17T23:05:18.894Z,76.64
2018-08-17T23:07:47.415Z,76.33
2018-08-17T23:10:17.999Z,76.73
2018-08-17T23:12:47.702Z,77.09
2018-08-17T23:15:16.229Z,76.99
2018-08-17T23:18:01.538Z,77.15
2018-08-17T23:20:36.196Z,77.41
2018-08-17T23:23:06.071Z,77.24
2018-08-17T23:25:35.029Z,77.44
2018-08-17T23:28:03.744Z,77.85
2018-08-17T23:30:32.362Z,77.62
2018-08-17T23:33:01.094Z,77.72
2018-08-17T23:35:29.879Z,77.92
2018-08-17T23:37:58.665Z,77.94
2018-08-17T23:40:27.454Z,77.56
2018-08-17T23:42:56.039Z,77.81
2018-08-17T23:45:24.620Z,78.78
2018-08-17T23:47:53.356Z,78.43
2018-08-17T23:50:22.047Z,78.26
2018-08-17T23:52:50.676Z,78.69
2018-08-17T23:55:19.278Z,78.93
2018-08-17T23:57:48.048Z,78.83
